createdAt,value
2022-08-31T00:01:51.596Z,101103.59
2022-08-31T00:04:55.723Z,101105.25
2022-08-31T00:07:58.098Z,101096.91
2022-08-31T00:11:00.985Z,101093.09
2022-08-31T00:14:13.365Z,101102.28
2022-08-31T00:17:16.508Z,101105.03
2022-08-31T00:20:32.431Z,101104.19
2022-08-31T00:23:36.613Z,101104.34
2022-08-31T00:26:38.762Z,101105.50
2022-08-31T00:29:41.286Z,101111.84
2022-08-31T00:32:43.343Z,101098.25
2022-08-31T00:35:45.843Z,101110.94
2022-08-31T00:38:49.590Z,101122.75
2022-08-31T00:41:51.770Z,101115.00
2022-08-31T00:44:54.107Z,101109.50
2022-08-31T00:47:56.372Z,101109.78
2022-08-31T00:50:59.222Z,101117.56
2022-08-31T00:54:01.526Z,101121.41
2022-08-31T00:57:05.866Z,101111.94
2022-08-31T01:00:12.682Z,101134.97
2022-08-31T01:03:17.358Z,101125.41
2022-08-31T01:06:20.687Z,101128.25
2022-08-31T01:09:25.281Z,101110.34
2022-08-31T01:12:28.221Z,101113.34
2022-08-31T01:15:31.812Z,101118.31
2022-08-31T01:18:35.022Z,101128.34
2022-08-31T01:21:57.238Z,101125.03
2022-08-31T01:25:00.696Z,101132.41
2022-08-31T01:28:07.407Z,101127.44
2022-08-31T01:31:14.945Z,101140.31
2022-08-31T01:34:17.227Z,101141.34
2022-08-31T01:37:19.768Z,101138.31
2022-08-31T01:40:38.513Z,101132.59
2022-08-31T01:43:40.698Z,101141.19
2022-08-31T01:46:43.606Z,101130.56
2022-08-31T01:49:45.771Z,101131.50
2022-08-31T01:52:47.873Z,101136.03
2022-08-31T01:55:50.472Z,101140.19
2022-08-31T01:58:53.483Z,101137.91
2022-08-31T02:02:15.892Z,101136.03
2022-08-31T02:05:18.296Z,101135.44
2022-08-31T02:08:20.576Z,101135.44
2022-08-31T02:11:22.852Z,101124.56
2022-08-31T02:14:26.080Z,101129.47
2022-08-31T02:17:28.528Z,101133.31
2022-08-31T02:20:31.168Z,101123.47
2022-08-31T02:23:33.483Z,101131.72
2022-08-31T02:26:35.701Z,101133.03
2022-08-31T02:29:38.655Z,101135.03
2022-08-31T02:32:40.811Z,101126.44
2022-08-31T02:35:45.226Z,101138.38
2022-08-31T02:38:50.710Z,101135.84
2022-08-31T02:41:54.367Z,101125.47
2022-08-31T02:44:57.377Z,101139.91
2022-08-31T02:47:59.564Z,101126.16
2022-08-31T02:51:11.618Z,101141.81
2022-08-31T02:54:14.188Z,101144.09
2022-08-31T02:57:21.000Z,101149.56
2022-08-31T03:00:24.603Z,101146.91
2022-08-31T03:03:26.759Z,101143.19
2022-08-31T03:06:30.029Z,101141.97
2022-08-31T03:09:34.125Z,101146.84
2022-08-31T03:12:38.004Z,101152.50
2022-08-31T03:15:41.642Z,101128.03
2022-08-31T03:18:43.914Z,101139.97
2022-08-31T03:21:47.261Z,101131.75
2022-08-31T03:24:49.919Z,101138.06
2022-08-31T03:27:52.041Z,101147.38
2022-08-31T03:30:54.410Z,101150.97
2022-08-31T03:33:57.575Z,101139.28
2022-08-31T03:36:59.740Z,101153.16
2022-08-31T03:40:02.872Z,101150.25
2022-08-31T03:43:11.598Z,101138.53
2022-08-31T03:46:15.658Z,101144.72
2022-08-31T03:49:19.015Z,101138.38
2022-08-31T03:52:38.662Z,101143.88
2022-08-31T03:55:48.122Z,101143.88
2022-08-31T03:58:50.947Z,101133.59
2022-08-31T04:02:22.574Z,101144.59
2022-08-31T04:05:45.126Z,101143.97
2022-08-31T04:09:13.600Z,101150.06
2022-08-31T04:12:48.071Z,101158.06
2022-08-31T04:16:23.088Z,101143.75
2022-08-31T04:19:57.188Z,101155.84
2022-08-31T04:23:11.766Z,101150.47
2022-08-31T04:26:37.112Z,101164.09
2022-08-31T04:29:40.849Z,101147.59
2022-08-31T04:32:42.907Z,101153.69
2022-08-31T04:35:45.035Z,101153.09
2022-08-31T04:38:49.410Z,101145.59
2022-08-31T04:41:51.837Z,101150.69
2022-08-31T04:44:54.967Z,101157.72
2022-08-31T04:47:57.149Z,101155.72
2022-08-31T04:51:06.690Z,101156.31
2022-08-31T04:54:11.819Z,101157.69
2022-08-31T04:57:13.975Z,101163.53
2022-08-31T05:00:18.102Z,101163.88
2022-08-31T05:03:41.110Z,101155.38
2022-08-31T05:06:46.360Z,101167.72
2022-08-31T05:09:49.738Z,101178.59
2022-08-31T05:12:52.229Z,101176.19
2022-08-31T05:15:58.303Z,101156.25
2022-08-31T05:19:01.482Z,101170.06
2022-08-31T05:22:03.961Z,101170.06
2022-08-31T05:25:09.526Z,101170.56
2022-08-31T05:28:11.653Z,101169.63
2022-08-31T05:31:14.570Z,101184.91
2022-08-31T05:34:21.973Z,101175.56
2022-08-31T05:37:24.374Z,101171.75
2022-08-31T05:40:28.222Z,101176.66
2022-08-31T05:43:31.161Z,101177.97
2022-08-31T05:46:34.756Z,101182.38
2022-08-31T05:49:39.198Z,101176.44
2022-08-31T05:52:43.685Z,101161.72
2022-08-31T05:55:46.206Z,101167.59
2022-08-31T05:58:49.261Z,101169.38
2022-08-31T06:01:52.249Z,101181.34
2022-08-31T06:04:59.226Z,101177.75
2022-08-31T06:08:01.622Z,101184.16
2022-08-31T06:11:05.966Z,101175.34
2022-08-31T06:14:09.909Z,101177.00
2022-08-31T06:17:13.520Z,101176.19
2022-08-31T06:20:18.165Z,101184.78
2022-08-31T06:23:22.552Z,101194.44
2022-08-31T06:26:29.208Z,101193.16
2022-08-31T06:29:32.331Z,101197.00
2022-08-31T06:32:36.083Z,101202.38
2022-08-31T06:35:40.456Z,101193.19
2022-08-31T06:39:09.245Z,101192.69
2022-08-31T06:42:20.106Z,101203.19
2022-08-31T06:45:31.548Z,101184.78
2022-08-31T06:48:56.406Z,101193.25
2022-08-31T06:52:00.984Z,101199.56
2022-08-31T06:55:04.516Z,101184.78
2022-08-31T06:58:25.288Z,101191.44
2022-08-31T07:01:49.365Z,101197.03
2022-08-31T07:04:58.801Z,101188.31
2022-08-31T07:08:00.822Z,101199.69
2022-08-31T07:11:03.605Z,101207.00
2022-08-31T07:14:09.961Z,101199.56
2022-08-31T07:17:13.629Z,101194.94
2022-08-31T07:20:15.805Z,101198.03
2022-08-31T07:23:18.485Z,101175.72
2022-08-31T07:26:39.262Z,101184.78
2022-08-31T07:29:41.514Z,101202.31
2022-08-31T07:32:50.391Z,101191.53
2022-08-31T07:35:58.960Z,101189.41
2022-08-31T07:39:39.952Z,101194.06
2022-08-31T07:42:44.574Z,101202.41
2022-08-31T07:45:46.857Z,101201.47
2022-08-31T07:48:55.026Z,101202.72
2022-08-31T07:52:00.196Z,101195.78
2022-08-31T07:55:28.327Z,101210.34
2022-08-31T07:58:35.350Z,101208.09
2022-08-31T08:01:40.517Z,101215.03
2022-08-31T08:04:44.413Z,101207.25
2022-08-31T08:08:23.000Z,101209.66
2022-08-31T08:11:55.340Z,101215.84
2022-08-31T08:15:16.394Z,101217.63
2022-08-31T08:18:18.549Z,101207.13
2022-08-31T08:21:25.088Z,101214.75
2022-08-31T08:24:29.463Z,101213.53
2022-08-31T08:27:41.196Z,101201.56
2022-08-31T08:31:01.663Z,101212.19
2022-08-31T08:34:06.921Z,101204.78
2022-08-31T08:37:11.471Z,101199.38
2022-08-31T08:40:42.823Z,101193.63
2022-08-31T08:43:58.845Z,101203.31
2022-08-31T08:47:07.974Z,101190.28
2022-08-31T08:50:19.176Z,101184.19
2022-08-31T08:53:27.512Z,101179.16
2022-08-31T08:56:49.838Z,101195.44
2022-08-31T08:59:58.629Z,101195.53
2022-08-31T09:03:12.597Z,101198.44
2022-08-31T09:07:11.923Z,101188.50
2022-08-31T09:10:26.196Z,101186.03
2022-08-31T09:13:56.430Z,101179.38
2022-08-31T09:17:02.369Z,101191.72
2022-08-31T09:20:05.948Z,101193.28
2022-08-31T09:23:09.294Z,101184.09
2022-08-31T09:26:16.935Z,101193.63
2022-08-31T09:29:45.122Z,101185.69
2022-08-31T09:32:57.285Z,101186.38
2022-08-31T09:36:22.551Z,101177.88
2022-08-31T09:39:33.007Z,101158.75
2022-08-31T09:42:39.393Z,101171.78
2022-08-31T09:46:25.977Z,101181.59
2022-08-31T09:49:39.190Z,101182.63
2022-08-31T09:52:59.659Z,101171.47
2022-08-31T09:56:18.918Z,101179.91
2022-08-31T09:59:44.608Z,101166.53
2022-08-31T10:02:46.830Z,101170.22
2022-08-31T10:05:51.978Z,101170.44
2022-08-31T10:09:00.642Z,101174.56
2022-08-31T10:12:09.866Z,101172.88
2022-08-31T10:15:21.636Z,101175.03
2022-08-31T10:18:39.789Z,101170.38
2022-08-31T10:21:53.568Z,101157.53
2022-08-31T10:25:12.881Z,101151.84
2022-08-31T10:28:43.936Z,101152.78
2022-08-31T10:31:55.187Z,101157.53
2022-08-31T10:35:19.715Z,101159.81
2022-08-31T10:38:38.662Z,101162.06
2022-08-31T10:41:45.246Z,101158.53
2022-08-31T10:44:58.987Z,101164.31
2022-08-31T10:48:05.129Z,101160.28
2022-08-31T10:51:19.594Z,101173.66
2022-08-31T10:54:40.474Z,101182.25
2022-08-31T10:57:58.780Z,101172.56
2022-08-31T11:01:08.754Z,101161.69
2022-08-31T11:04:22.960Z,101166.91
2022-08-31T11:07:36.957Z,101173.16
2022-08-31T11:10:54.553Z,101166.22
2022-08-31T11:14:09.992Z,101159.47
2022-08-31T11:17:47.551Z,101144.28
2022-08-31T11:21:21.701Z,101158.31
2022-08-31T11:24:56.267Z,101150.13
2022-08-31T11:28:07.261Z,101139.78
2022-08-31T11:31:23.866Z,101143.75
2022-08-31T11:34:29.007Z,101141.59
2022-08-31T11:37:51.061Z,101138.25
2022-08-31T11:41:00.863Z,101141.28
2022-08-31T11:44:06.226Z,101127.25
2022-08-31T11:47:28.957Z,101123.78
2022-08-31T11:50:37.269Z,101131.00
2022-08-31T11:53:44.562Z,101139.88
2022-08-31T11:56:47.726Z,101133.25
2022-08-31T11:59:51.001Z,101116.69
2022-08-31T12:03:09.661Z,101125.75
2022-08-31T12:06:37.389Z,101129.50
2022-08-31T12:09:42.445Z,101122.69
2022-08-31T12:13:07.856Z,101120.66
2022-08-31T12:16:23.318Z,101084.47
2022-08-31T12:19:54.923Z,101102.25
2022-08-31T12:23:30.941Z,101088.72
2022-08-31T12:26:59.691Z,101090.97
2022-08-31T12:30:20.381Z,101087.47
2022-08-31T12:33:26.936Z,101065.63
2022-08-31T12:36:32.733Z,101078.16
2022-08-31T12:39:34.939Z,101068.47
2022-08-31T12:42:46.333Z,101075.47
2022-08-31T12:46:12.730Z,101073.13
2022-08-31T12:49:37.769Z,101073.13
2022-08-31T12:53:17.272Z,101080.13
2022-08-31T12:56:33.571Z,101063.56
2022-08-31T13:00:01.271Z,101066.97
2022-08-31T13:03:07.172Z,101071.72
2022-08-31T13:06:13.810Z,101072.31
2022-08-31T13:09:30.327Z,101054.59
2022-08-31T13:12:32.698Z,101057.97
2022-08-31T13:15:42.307Z,101060.53
2022-08-31T13:18:46.513Z,101062.31
2022-08-31T13:22:07.995Z,101068.13
2022-08-31T13:25:36.200Z,101068.38
2022-08-31T13:28:38.471Z,101064.22
2022-08-31T13:31:50.148Z,101060.53
2022-08-31T13:34:55.081Z,101066.38
2022-08-31T13:38:05.181Z,101057.88
2022-08-31T13:41:28.184Z,101058.22
2022-08-31T13:44:33.962Z,101059.28
2022-08-31T13:47:56.821Z,101052.72
2022-08-31T13:51:13.202Z,101054.03
2022-08-31T13:54:27.643Z,101054.53
2022-08-31T13:57:34.895Z,101053.13
2022-08-31T14:00:44.168Z,101054.72
2022-08-31T14:03:59.228Z,101060.72
2022-08-31T14:07:02.160Z,101066.53
2022-08-31T14:10:19.461Z,101064.72
2022-08-31T14:13:25.384Z,101055.38
2022-08-31T14:16:33.274Z,101058.13
2022-08-31T14:19:40.142Z,101046.28
2022-08-31T14:22:45.856Z,101040.44
2022-08-31T14:25:48.006Z,101037.97
2022-08-31T14:28:53.663Z,101038.34
2022-08-31T14:31:58.043Z,101040.09
2022-08-31T14:35:02.416Z,101038.75
2022-08-31T14:38:04.589Z,101023.44
2022-08-31T14:41:09.267Z,101018.44
2022-08-31T14:44:13.565Z,101025.34
2022-08-31T14:47:15.618Z,101023.66
2022-08-31T14:50:23.579Z,101029.78
2022-08-31T14:53:25.957Z,101009.69
2022-08-31T14:56:33.348Z,101028.44
2022-08-31T14:59:36.326Z,101017.50
2022-08-31T15:02:39.061Z,101028.34
2022-08-31T15:05:42.425Z,101018.50
2022-08-31T15:08:44.582Z,101021.78
2022-08-31T15:11:47.012Z,101017.50
2022-08-31T15:14:49.895Z,101016.28
2022-08-31T15:17:52.133Z,101020.69
2022-08-31T15:20:56.071Z,101010.59
2022-08-31T15:23:58.478Z,101026.03
2022-08-31T15:27:01.594Z,101022.69
2022-08-31T15:30:07.935Z,101026.34
2022-08-31T15:33:11.274Z,101023.88
2022-08-31T15:36:15.582Z,101025.44
2022-08-31T15:39:20.340Z,101023.72
2022-08-31T15:42:23.810Z,101015.09
2022-08-31T15:45:30.040Z,101017.84
2022-08-31T15:48:47.484Z,101020.97
2022-08-31T15:51:51.865Z,101021.53
2022-08-31T15:54:54.735Z,101014.34
2022-08-31T15:57:59.436Z,101014.00
2022-08-31T16:01:02.054Z,101013.66
2022-08-31T16:04:08.328Z,101016.56
2022-08-31T16:07:11.890Z,101015.09
2022-08-31T16:10:19.826Z,101009.31
2022-08-31T16:13:22.591Z,101014.50
2022-08-31T16:16:30.951Z,101026.91
2022-08-31T16:19:36.494Z,101019.59
2022-08-31T16:22:39.675Z,101011.25
2022-08-31T16:25:48.561Z,101017.66
2022-08-31T16:28:51.202Z,101020.66
2022-08-31T16:31:54.517Z,101029.25
2022-08-31T16:34:56.986Z,101012.34
2022-08-31T16:38:00.566Z,101013.50
2022-08-31T16:41:04.945Z,101029.00
2022-08-31T16:44:19.467Z,101020.09
2022-08-31T16:47:21.994Z,101036.44
2022-08-31T16:50:24.218Z,101035.06
2022-08-31T16:53:26.353Z,101037.16
2022-08-31T16:56:32.778Z,101037.69
2022-08-31T16:59:36.543Z,101037.69
2022-08-31T17:02:38.670Z,101031.91
2022-08-31T17:05:43.022Z,101029.66
2022-08-31T17:08:46.197Z,101025.91
2022-08-31T17:11:56.828Z,101041.16
2022-08-31T17:15:00.530Z,101055.75
2022-08-31T17:18:02.587Z,101049.41
2022-08-31T17:21:04.728Z,101030.47
2022-08-31T17:24:06.821Z,101053.66
2022-08-31T17:27:17.282Z,101050.44
2022-08-31T17:30:19.494Z,101044.22
2022-08-31T17:33:23.381Z,101057.59
2022-08-31T17:36:37.315Z,101066.41
2022-08-31T17:39:42.412Z,101066.41
2022-08-31T17:42:44.789Z,101044.97
2022-08-31T17:45:46.943Z,101071.34
2022-08-31T17:48:49.423Z,101070.25
2022-08-31T17:51:54.120Z,101072.66
2022-08-31T17:54:56.646Z,101073.16
2022-08-31T17:57:58.971Z,101070.81
2022-08-31T18:01:01.372Z,101070.81
2022-08-31T18:04:05.142Z,101073.31
2022-08-31T18:07:09.270Z,101076.31
2022-08-31T18:10:12.744Z,101070.56
2022-08-31T18:13:15.011Z,101077.22
2022-08-31T18:16:18.103Z,101084.75
2022-08-31T18:19:25.573Z,101088.94
2022-08-31T18:22:30.331Z,101090.59
2022-08-31T18:25:36.979Z,101082.09
2022-08-31T18:28:39.326Z,101071.50
2022-08-31T18:31:44.196Z,101082.50
2022-08-31T18:34:47.519Z,101077.94
2022-08-31T18:37:49.792Z,101073.41
2022-08-31T18:41:10.414Z,101070.16
2022-08-31T18:44:32.242Z,101073.75
2022-08-31T18:47:34.345Z,101070.66
2022-08-31T18:50:37.257Z,101061.81
2022-08-31T18:53:39.539Z,101055.16
2022-08-31T18:56:42.187Z,101059.31
2022-08-31T18:59:44.895Z,101061.72
2022-08-31T19:02:47.128Z,101064.81
2022-08-31T19:05:49.502Z,101056.09
2022-08-31T19:08:52.646Z,101055.75
2022-08-31T19:11:55.991Z,101050.81
2022-08-31T19:14:59.327Z,101054.88
2022-08-31T19:18:01.448Z,101060.50
2022-08-31T19:21:33.476Z,101053.81
2022-08-31T19:24:36.058Z,101062.97
2022-08-31T19:27:39.349Z,101063.59
2022-08-31T19:30:47.771Z,101047.56
2022-08-31T19:33:56.537Z,101054.00
2022-08-31T19:37:00.986Z,101051.75
2022-08-31T19:40:05.630Z,101047.84
2022-08-31T19:46:32.990Z,101038.72
2022-08-31T19:49:35.393Z,101042.81
2022-08-31T19:52:37.654Z,101055.81
2022-08-31T19:55:50.605Z,101060.72
2022-08-31T19:58:56.599Z,101052.41
2022-08-31T20:01:59.629Z,101066.81
2022-08-31T20:05:06.690Z,101048.81
2022-08-31T20:08:10.134Z,101061.31
2022-08-31T20:11:17.045Z,101051.97
2022-08-31T20:14:23.995Z,101034.81
2022-08-31T20:17:30.244Z,101040.91
2022-08-31T20:20:36.290Z,101050.31
2022-08-31T20:23:38.898Z,101050.91
2022-08-31T20:26:51.949Z,101050.91
2022-08-31T20:29:54.419Z,101046.47
2022-08-31T20:32:56.590Z,101049.16
2022-08-31T20:35:58.858Z,101044.75
2022-08-31T20:39:07.940Z,101052.47
2022-08-31T20:42:10.157Z,101051.31
2022-08-31T20:45:12.284Z,101049.03
2022-08-31T20:48:33.319Z,101048.81
2022-08-31T20:51:40.396Z,101057.91
2022-08-31T20:54:43.947Z,101049.31
2022-08-31T20:57:47.071Z,101049.66
2022-08-31T21:00:51.795Z,101035.22
2022-08-31T21:03:53.967Z,101067.31
2022-08-31T21:06:58.028Z,101058.22
2022-08-31T21:10:00.046Z,101050.72
2022-08-31T21:13:02.380Z,101052.41
2022-08-31T21:16:04.689Z,101051.06
2022-08-31T21:19:13.825Z,101055.16
2022-08-31T21:22:17.322Z,101042.97
2022-08-31T21:25:19.547Z,101048.22
2022-08-31T21:28:22.030Z,101058.50
2022-08-31T21:31:28.949Z,101062.06
2022-08-31T21:34:32.154Z,101048.81
2022-08-31T21:37:34.277Z,101057.06
2022-08-31T21:40:37.179Z,101045.53
2022-08-31T21:43:40.267Z,101064.22
2022-08-31T21:46:46.971Z,101057.22
2022-08-31T21:49:53.575Z,101077.13
2022-08-31T21:53:00.099Z,101057.56
2022-08-31T21:56:04.018Z,101061.72
2022-08-31T21:59:06.574Z,101061.47
2022-08-31T22:02:11.497Z,101049.56
2022-08-31T22:05:14.027Z,101060.66
2022-08-31T22:08:16.117Z,101057.81
2022-08-31T22:11:20.507Z,101056.47
2022-08-31T22:14:26.618Z,101048.72
2022-08-31T22:17:48.331Z,101049.91
2022-08-31T22:20:51.574Z,101059.22
2022-08-31T22:23:59.938Z,101050.69
2022-08-31T22:27:06.149Z,101054.13
2022-08-31T22:30:09.056Z,101044.03
2022-08-31T22:33:11.103Z,101055.34
2022-08-31T22:36:25.795Z,101061.00
2022-08-31T22:39:33.839Z,101052.63
2022-08-31T22:42:35.983Z,101041.38
2022-08-31T22:45:48.504Z,101046.50
2022-08-31T22:48:50.979Z,101038.91
2022-08-31T22:51:54.519Z,101036.72
2022-08-31T22:54:56.833Z,101037.81
2022-08-31T22:57:58.943Z,101041.00
2022-08-31T23:01:00.968Z,101026.78
2022-08-31T23:04:08.551Z,101031.03
2022-08-31T23:07:16.583Z,101025.81
2022-08-31T23:10:20.052Z,101024.22
2022-08-31T23:13:41.955Z,101027.22
2022-08-31T23:16:46.938Z,101019.31
2022-08-31T23:19:52.302Z,101016.22
2022-08-31T23:22:55.440Z,101011.78
2022-08-31T23:25:57.680Z,101025.53
2022-08-31T23:29:05.506Z,101020.03
2022-08-31T23:32:13.502Z,101007.53
2022-08-31T23:35:17.955Z,101010.63
2022-08-31T23:38:20.280Z,101014.69
2022-08-31T23:41:25.911Z,101025.81
2022-08-31T23:44:29.083Z,101034.63
2022-08-31T23:47:31.868Z,101040.72
2022-08-31T23:50:34.600Z,101036.78
2022-08-31T23:53:38.276Z,101045.97
2022-08-31T23:56:42.702Z,101049.56
2022-08-31T23:59:52.262Z,101044.28
